Time;durP1;ratioP1;P1;durP2;ratioP2;P2;SDS_P1;SDS_P2;PMS_P1;PMS_P2;Temp;Humidity;BMP_temperature;BMP_pressure;BME280_temperature;BME280_humidity;BME280_pressure;Samples;Min_cycle;Max_cycle;Signal;HPM_P1;HPM_P2
2024/02/13 00:01:14;;;;;;;7.00;3.80;;;6.00;99.90;;;;;;4998691;28;20014;-85
2024/02/13 00:03:40;;;;;;;8.90;4.20;;;5.90;99.90;;;;;;4998354;28;20090;-88
2024/02/13 00:06:06;;;;;;;5.65;3.75;;;5.90;99.90;;;;;;4980042;28;20050;-89
2024/02/13 00:08:31;;;;;;;6.40;3.85;;;5.90;99.90;;;;;;4981678;28;20317;-89
2024/02/13 00:11:04;;;;;;;7.25;3.85;;;5.90;99.90;;;;;;4975467;28;20116;-89
2024/02/13 00:13:30;;;;;;;8.48;4.18;;;5.90;99.90;;;;;;4975568;28;20117;-89
2024/02/13 00:15:56;;;;;;;8.55;4.97;;;5.90;99.90;;;;;;4975639;28;20108;-89
2024/02/13 00:18:21;;;;;;;7.88;4.18;;;5.90;99.90;;;;;;4959100;28;20027;-89
2024/02/13 00:20:47;;;;;;;7.28;4.25;;;5.90;99.90;;;;;;4959447;28;20470;-89
2024/02/13 00:23:15;;;;;;;6.00;4.35;;;5.90;99.90;;;;;;4975448;28;20467;-89
2024/02/13 00:25:40;;;;;;;9.43;4.47;;;5.90;99.90;;;;;;4943502;28;20030;-89
2024/02/13 00:28:07;;;;;;;9.25;4.47;;;5.90;99.90;;;;;;4943215;28;20089;-89
2024/02/13 00:30:32;;;;;;;8.73;4.90;;;5.80;99.90;;;;;;4974779;28;20045;-89
2024/02/13 00:32:59;;;;;;;7.93;5.03;;;5.80;99.90;;;;;;4958452;28;20122;-89
2024/02/13 00:35:24;;;;;;;8.50;4.93;;;5.80;99.90;;;;;;4958935;28;20027;-89
2024/02/13 00:37:50;;;;;;;11.00;5.57;;;5.80;99.90;;;;;;4958727;28;20471;-88
2024/02/13 00:40:16;;;;;;;8.82;5.47;;;5.80;99.90;;;;;;4942530;28;20038;-85
2024/02/13 00:42:42;;;;;;;8.02;5.82;;;5.80;99.90;;;;;;4958986;28;20031;-89
2024/02/13 00:45:10;;;;;;;10.50;6.30;;;5.80;99.90;;;;;;4958970;28;20038;-89
2024/02/13 00:47:40;;;;;;;11.90;6.00;;;5.70;99.90;;;;;;4976291;28;20031;-89
2024/02/13 00:50:07;;;;;;;9.57;6.15;;;5.70;99.90;;;;;;4974886;28;20051;-85
2024/02/13 00:52:33;;;;;;;11.05;6.93;;;5.70;99.90;;;;;;4958776;28;20053;-89
2024/02/13 00:54:59;;;;;;;9.73;6.57;;;5.70;99.90;;;;;;4958863;28;20042;-89
2024/02/13 00:57:25;;;;;;;12.15;7.07;;;5.70;99.90;;;;;;4942666;28;20023;-87
2024/02/13 00:59:52;;;;;;;14.90;7.45;;;5.70;99.90;;;;;;4942891;28;20057;-89
2024/02/13 01:02:18;;;;;;;10.88;6.80;;;5.70;99.90;;;;;;4975359;28;20037;-85
2024/02/13 01:04:44;;;;;;;10.60;7.45;;;5.70;99.90;;;;;;4958827;28;20109;-89
2024/02/13 01:07:10;;;;;;;11.02;7.47;;;5.70;99.90;;;;;;4958855;28;20138;-88
2024/02/13 01:09:36;;;;;;;11.93;8.38;;;5.70;99.90;;;;;;4958846;28;20439;-89
2024/02/13 01:12:11;;;;;;;10.57;7.90;;;5.70;99.90;;;;;;4974866;28;20089;-89
2024/02/13 01:14:37;;;;;;;13.50;7.88;;;5.70;99.90;;;;;;4975119;28;20031;-89
2024/02/13 01:17:04;;;;;;;11.13;8.20;;;5.70;99.90;;;;;;4959713;28;20030;-89
2024/02/13 01:19:31;;;;;;;11.15;8.00;;;5.70;99.90;;;;;;4968354;28;20107;-88
2024/02/13 01:22:00;;;;;;;11.50;7.60;;;5.70;99.90;;;;;;4997610;28;20825;-88
2024/02/13 01:24:26;;;;;;;11.82;8.63;;;5.70;99.90;;;;;;4997478;28;20054;-87
2024/02/13 01:26:57;;;;;;;12.02;8.80;;;5.70;99.90;;;;;;4996661;28;20031;-87
2024/02/13 01:29:23;;;;;;;12.85;9.10;;;5.60;99.90;;;;;;4976459;28;20035;-88
2024/02/13 01:32:09;;;;;;;13.25;9.20;;;5.60;99.90;;;;;;4974886;28;20455;-88
2024/02/13 01:34:35;;;;;;;16.73;10.02;;;5.60;99.90;;;;;;4957804;28;20490;-89
2024/02/13 01:37:01;;;;;;;14.15;9.45;;;5.60;99.90;;;;;;4975005;28;20029;-89
2024/02/13 01:39:29;;;;;;;15.00;9.95;;;5.60;99.90;;;;;;4976906;28;20031;-89
2024/02/13 01:41:57;;;;;;;18.02;11.13;;;5.60;99.90;;;;;;4978145;28;20085;-88
2024/02/13 01:44:24;;;;;;;13.30;10.45;;;5.60;99.90;;;;;;4978354;28;20031;-85
2024/02/13 01:46:53;;;;;;;15.10;10.40;;;5.60;99.90;;;;;;4978803;28;20363;-89
2024/02/13 01:49:28;;;;;;;14.82;11.18;;;5.60;99.90;;;;;;4961938;28;20337;-88
2024/02/13 01:51:55;;;;;;;13.73;11.05;;;5.60;99.90;;;;;;4979158;28;20019;-89
2024/02/13 01:54:25;;;;;;;13.43;10.95;;;5.60;99.90;;;;;;4961885;28;20038;-88
2024/02/13 01:56:52;;;;;;;16.20;12.07;;;5.70;99.90;;;;;;4978207;28;20027;-89
2024/02/13 01:59:18;;;;;;;15.52;12.02;;;5.70;99.90;;;;;;4977753;28;20390;-88
2024/02/13 02:01:44;;;;;;;15.77;11.35;;;5.70;99.90;;;;;;4977828;28;20659;-88
2024/02/13 02:04:11;;;;;;;17.02;11.70;;;5.70;99.90;;;;;;4977819;28;20019;-92
2024/02/13 02:06:37;;;;;;;15.77;11.13;;;5.70;99.90;;;;;;4977950;28;20022;-89
2024/02/13 02:09:03;;;;;;;13.55;10.57;;;5.70;99.90;;;;;;4977711;28;20094;-89
2024/02/13 02:11:30;;;;;;;16.40;12.52;;;5.70;99.90;;;;;;4976993;28;20126;-89
2024/02/13 02:14:00;;;;;;;14.23;11.40;;;5.70;99.90;;;;;;4977869;28;20391;-88
2024/02/13 02:16:27;;;;;;;16.08;12.13;;;5.70;99.90;;;;;;4977474;28;20479;-84
2024/02/13 02:18:55;;;;;;;15.40;11.68;;;5.70;99.90;;;;;;4977008;28;20030;-89
2024/02/13 02:21:21;;;;;;;14.93;10.68;;;5.60;99.90;;;;;;4961066;28;20455;-88
2024/02/13 02:23:47;;;;;;;14.68;11.65;;;5.70;99.90;;;;;;4977530;28;20117;-89
2024/02/13 02:26:13;;;;;;;17.05;11.75;;;5.70;99.90;;;;;;4977895;28;20118;-88
2024/02/13 02:28:40;;;;;;;13.15;10.63;;;5.70;99.90;;;;;;4977393;28;20023;-89
2024/02/13 02:31:11;;;;;;;14.40;11.32;;;5.70;99.90;;;;;;4976648;28;20459;-85
2024/02/13 02:33:37;;;;;;;15.38;10.88;;;5.70;99.90;;;;;;4961422;28;20037;-88
2024/02/13 02:36:03;;;;;;;17.27;10.95;;;5.70;99.90;;;;;;4961174;28;20122;-89
2024/02/13 02:38:28;;;;;;;13.80;10.68;;;5.70;99.90;;;;;;4977712;28;20414;-88
2024/02/13 02:41:03;;;;;;;14.05;11.30;;;5.70;99.90;;;;;;4962098;28;20042;-89
2024/02/13 02:43:29;;;;;;;16.75;11.15;;;5.70;99.90;;;;;;4986557;28;20027;-84
2024/02/13 02:45:54;;;;;;;15.10;11.68;;;5.70;99.90;;;;;;4999774;28;20282;-87
2024/02/13 02:48:20;;;;;;;14.07;11.77;;;5.70;99.90;;;;;;5000355;28;20047;-88
2024/02/13 02:50:46;;;;;;;15.35;11.93;;;5.70;99.90;;;;;;4995138;28;20559;-89
2024/02/13 02:53:12;;;;;;;16.27;11.70;;;5.70;99.90;;;;;;4962641;28;20043;-90
2024/02/13 02:55:40;;;;;;;14.50;11.95;;;5.70;99.90;;;;;;4961025;28;20058;-89
2024/02/13 02:58:08;;;;;;;16.05;11.73;;;5.70;99.90;;;;;;4976823;28;20035;-89
2024/02/13 03:00:35;;;;;;;16.42;11.82;;;5.70;99.90;;;;;;4960780;28;20030;-88
2024/02/13 03:03:02;;;;;;;15.63;11.18;;;5.70;99.90;;;;;;4977775;28;20028;-89
2024/02/13 03:05:32;;;;;;;16.17;11.75;;;5.70;99.90;;;;;;4976772;28;20481;-89
2024/02/13 03:08:02;;;;;;;15.75;11.70;;;5.70;99.90;;;;;;4976528;28;20471;-89
2024/02/13 03:10:28;;;;;;;15.95;11.80;;;5.70;99.90;;;;;;4979911;28;20387;-89
2024/02/13 03:12:55;;;;;;;15.13;10.75;;;5.70;99.90;;;;;;4996731;28;20101;-90
2024/02/13 03:15:21;;;;;;;15.30;11.10;;;5.70;99.90;;;;;;4996969;28;20022;-89
2024/02/13 03:17:48;;;;;;;15.55;11.27;;;5.70;99.90;;;;;;4980949;28;20107;-89
2024/02/13 03:20:14;;;;;;;16.10;12.38;;;5.70;99.90;;;;;;4980442;28;20057;-90
2024/02/13 03:22:39;;;;;;;14.65;11.80;;;5.70;99.90;;;;;;4979931;28;20031;-89
2024/02/13 03:25:05;;;;;;;13.88;10.98;;;5.70;99.90;;;;;;4979962;28;20424;-89
2024/02/13 03:27:31;;;;;;;14.95;11.40;;;5.70;99.90;;;;;;4980118;28;20023;-88
2024/02/13 03:30:00;;;;;;;14.30;11.38;;;5.70;99.90;;;;;;4979463;28;20056;-89
2024/02/13 03:32:28;;;;;;;19.48;11.10;;;5.70;99.90;;;;;;4979474;28;20045;-88
2024/02/13 03:34:54;;;;;;;17.95;11.73;;;5.70;99.90;;;;;;4979118;28;20035;-89
2024/02/13 03:37:21;;;;;;;15.73;11.45;;;5.70;99.90;;;;;;4979613;28;20034;-88
2024/02/13 03:39:47;;;;;;;16.23;11.25;;;5.70;99.90;;;;;;4996415;28;20109;-89
2024/02/13 03:42:13;;;;;;;15.63;10.85;;;5.70;99.90;;;;;;4979548;28;20045;-89
2024/02/13 03:44:38;;;;;;;15.85;10.93;;;5.70;99.90;;;;;;4979633;28;20117;-90
2024/02/13 03:47:07;;;;;;;17.17;11.63;;;5.70;99.90;;;;;;4995922;28;20045;-90
2024/02/13 03:49:32;;;;;;;13.90;10.63;;;5.70;99.90;;;;;;4980288;28;20129;-89
2024/02/13 03:51:59;;;;;;;13.98;10.32;;;5.70;99.90;;;;;;4981656;28;20070;-89
2024/02/13 03:54:25;;;;;;;15.40;11.23;;;5.70;99.90;;;;;;4965088;28;20039;-90
2024/02/13 03:56:51;;;;;;;12.45;10.50;;;5.70;99.90;;;;;;4980320;28;20524;-89
2024/02/13 03:59:16;;;;;;;11.63;9.88;;;5.70;99.90;;;;;;4980646;28;20026;-89
2024/02/13 04:01:43;;;;;;;18.00;11.20;;;5.70;99.90;;;;;;4984895;28;20029;-89
2024/02/13 04:04:08;;;;;;;15.95;10.98;;;5.60;99.90;;;;;;5013285;28;20022;-89
2024/02/13 04:06:35;;;;;;;16.02;11.40;;;5.70;99.90;;;;;;5000888;28;20026;-87
2024/02/13 04:09:02;;;;;;;16.83;10.95;;;5.70;99.90;;;;;;5013527;28;20048;-89
2024/02/13 04:11:31;;;;;;;15.68;9.85;;;5.60;99.90;;;;;;4989291;28;20046;-90
2024/02/13 04:13:57;;;;;;;13.63;9.93;;;5.60;99.90;;;;;;4968668;28;20030;-90
2024/02/13 04:16:24;;;;;;;15.35;10.85;;;5.60;99.90;;;;;;4963259;28;20458;-89
2024/02/13 04:18:49;;;;;;;13.65;10.13;;;5.60;99.90;;;;;;4978535;28;20026;-89
2024/02/13 04:21:17;;;;;;;13.52;10.00;;;5.60;99.90;;;;;;4978719;28;20385;-89
2024/02/13 04:23:44;;;;;;;16.95;10.73;;;5.60;99.90;;;;;;4978059;28;20027;-89
2024/02/13 04:26:09;;;;;;;19.52;11.88;;;5.60;99.90;;;;;;4978685;28;20061;-90
2024/02/13 04:28:35;;;;;;;13.88;9.88;;;5.60;99.90;;;;;;4978249;28;20034;-89
2024/02/13 04:31:01;;;;;;;13.07;10.05;;;5.60;99.90;;;;;;4962289;28;20455;-89
2024/02/13 04:33:26;;;;;;;13.70;10.65;;;5.60;99.90;;;;;;4995863;28;20031;-89
2024/02/13 04:35:52;;;;;;;12.98;10.10;;;5.60;99.90;;;;;;4994448;28;20057;-89
2024/02/13 04:38:18;;;;;;;13.82;10.55;;;5.60;99.90;;;;;;4977958;28;20034;-89
2024/02/13 04:40:44;;;;;;;15.10;9.93;;;5.60;99.90;;;;;;4962449;28;20035;-89
2024/02/13 04:43:09;;;;;;;13.43;9.82;;;5.50;99.90;;;;;;4962471;28;20066;-89
2024/02/13 04:45:35;;;;;;;12.68;10.63;;;5.50;99.90;;;;;;4962013;28;20474;-89
2024/02/13 04:48:02;;;;;;;16.75;10.77;;;5.50;99.90;;;;;;4994284;28;20031;-89
2024/02/13 04:50:28;;;;;;;15.40;10.07;;;5.50;99.90;;;;;;4962299;28;20458;-90
2024/02/13 04:52:55;;;;;;;14.57;10.35;;;5.50;99.90;;;;;;4977849;28;20073;-88
2024/02/13 04:55:22;;;;;;;13.88;10.15;;;5.50;99.90;;;;;;4978472;28;20033;-89
2024/02/13 04:57:48;;;;;;;16.42;10.88;;;5.50;99.90;;;;;;4961970;28;20214;-90
2024/02/13 05:00:51;;;;;;;16.17;10.05;;;5.50;99.90;;;;;;4978273;28;20149;-90
2024/02/13 05:03:16;;;;;;;16.13;10.05;;;5.50;99.90;;;;;;4990198;28;20466;-89
2024/02/13 05:08:30;;;;;;;17.08;10.15;;;5.50;99.90;;;;;;4995747;28;20037;-89
2024/02/13 05:10:56;;;;;;;14.90;10.23;;;5.50;99.90;;;;;;4977881;28;20409;-90
2024/02/13 05:13:23;;;;;;;14.90;10.35;;;5.50;99.90;;;;;;4997771;28;20030;-91
2024/02/13 05:15:50;;;;;;;15.55;10.60;;;5.50;99.90;;;;;;4982057;28;20026;-89
2024/02/13 05:18:17;;;;;;;17.67;11.23;;;5.50;99.90;;;;;;4981781;28;20022;-89
2024/02/13 05:20:44;;;;;;;15.02;10.45;;;5.50;99.90;;;;;;4999770;28;20038;-90
2024/02/13 05:23:10;;;;;;;12.43;9.57;;;5.50;99.90;;;;;;4982325;28;20439;-90
2024/02/13 05:25:36;;;;;;;13.60;9.43;;;5.50;99.90;;;;;;4983141;28;20046;-91
2024/02/13 05:28:02;;;;;;;15.35;10.20;;;5.50;99.90;;;;;;5000374;28;20109;-90
2024/02/13 05:30:28;;;;;;;14.93;9.57;;;5.50;99.90;;;;;;5004149;28;20015;-91
2024/02/13 05:32:56;;;;;;;14.00;9.75;;;5.50;99.90;;;;;;5003907;28;20054;-93
2024/02/13 05:35:24;;;;;;;14.52;9.45;;;5.50;99.90;;;;;;5003790;28;20037;-94
2024/02/13 05:37:53;;;;;;;13.65;9.93;;;5.50;99.90;;;;;;4984717;28;20078;-91
2024/02/13 05:40:20;;;;;;;15.27;9.32;;;5.50;99.90;;;;;;4982375;28;20035;-94
2024/02/13 05:42:45;;;;;;;13.65;9.75;;;5.50;99.90;;;;;;4981536;28;20026;-92
2024/02/13 05:45:11;;;;;;;15.43;9.35;;;5.50;99.90;;;;;;4998598;28;20018;-90
2024/02/13 05:47:41;;;;;;;16.95;9.73;;;5.50;99.90;;;;;;4982152;28;20454;-93
2024/02/13 05:50:07;;;;;;;14.90;10.00;;;5.50;99.90;;;;;;4965235;28;20062;-88
2024/02/13 05:52:34;;;;;;;12.77;9.25;;;5.50;99.90;;;;;;4981040;28;20082;-91
2024/02/13 05:55:06;;;;;;;16.45;9.25;;;5.50;99.90;;;;;;4981170;28;20022;-93
2024/02/13 05:57:31;;;;;;;14.75;9.45;;;5.50;99.90;;;;;;4966228;28;20109;-90
2024/02/13 06:00:00;;;;;;;11.90;8.85;;;5.50;99.90;;;;;;4980804;28;20050;-91
2024/02/13 06:02:30;;;;;;;12.75;9.35;;;5.50;99.90;;;;;;4981448;28;20473;-91
2024/02/13 06:04:56;;;;;;;14.70;9.25;;;5.50;99.90;;;;;;4981105;28;20399;-92
2024/02/13 06:07:26;;;;;;;14.13;9.52;;;5.50;99.90;;;;;;4998358;28;20058;-90
2024/02/13 06:09:55;;;;;;;11.82;8.43;;;5.50;99.90;;;;;;4981029;28;20029;-89
2024/02/13 06:12:20;;;;;;;13.18;9.38;;;5.50;99.90;;;;;;4965650;28;20494;-92
2024/02/13 06:14:47;;;;;;;14.50;9.35;;;5.50;99.90;;;;;;4980915;28;20018;-92
2024/02/13 06:17:16;;;;;;;13.85;9.43;;;5.50;99.90;;;;;;4981284;28;20034;-95
2024/02/13 06:19:44;;;;;;;15.23;9.32;;;5.50;99.90;;;;;;4981918;28;20188;-93
2024/02/13 06:22:10;;;;;;;13.07;8.48;;;5.50;99.90;;;;;;4980468;28;20026;-91
2024/02/13 06:24:36;;;;;;;16.10;9.65;;;5.50;99.90;;;;;;4980358;28;20022;-92
2024/02/13 06:27:02;;;;;;;15.13;9.68;;;5.50;99.90;;;;;;4980862;28;20252;-90
2024/02/13 06:29:28;;;;;;;11.18;8.23;;;5.50;99.90;;;;;;4981003;28;20113;-87
2024/02/13 06:32:01;;;;;;;13.45;8.63;;;5.50;99.90;;;;;;4981065;28;20108;-89
2024/02/13 06:34:30;;;;;;;12.07;8.30;;;5.50;99.90;;;;;;4998432;28;20077;-93
2024/02/13 06:37:00;;;;;;;12.80;8.70;;;5.50;99.90;;;;;;4980860;28;20117;-92
2024/02/13 06:39:29;;;;;;;14.03;9.23;;;5.50;99.90;;;;;;4981728;28;20036;-93
2024/02/13 06:41:56;;;;;;;13.32;9.05;;;5.50;99.90;;;;;;4951020;28;20030;-93
2024/02/13 06:44:24;;;;;;;12.07;8.05;;;5.50;99.90;;;;;;4982618;28;20435;-91
2024/02/13 06:46:51;;;;;;;14.75;8.02;;;5.50;99.90;;;;;;4983385;28;20084;-92
2024/02/13 06:49:16;;;;;;;13.68;8.60;;;5.50;99.90;;;;;;4986149;28;20038;-93
2024/02/13 06:51:42;;;;;;;11.77;7.90;;;5.50;99.90;;;;;;4997766;28;20030;-90
2024/02/13 06:54:08;;;;;;;10.48;7.28;;;5.50;99.90;;;;;;5001828;28;20037;-93
2024/02/13 06:56:38;;;;;;;14.20;7.75;;;5.50;99.90;;;;;;5002204;28;20010;-92
2024/02/13 06:59:07;;;;;;;11.40;7.18;;;5.50;99.90;;;;;;4983522;28;20442;-94
2024/02/13 07:01:33;;;;;;;11.20;6.93;;;5.50;99.90;;;;;;4984297;28;20045;-92
2024/02/13 07:03:59;;;;;;;10.90;6.88;;;5.50;99.90;;;;;;4980568;28;20027;-93
2024/02/13 07:06:25;;;;;;;14.30;7.00;;;5.50;99.90;;;;;;4980278;28;20050;-91
2024/02/13 07:08:53;;;;;;;8.85;6.35;;;5.50;99.90;;;;;;4963947;28;20030;-92
2024/02/13 07:11:19;;;;;;;9.70;6.10;;;5.50;99.90;;;;;;4979435;28;20410;-93
2024/02/13 07:13:45;;;;;;;12.40;6.03;;;5.50;99.90;;;;;;4980504;28;20065;-93
2024/02/13 07:16:11;;;;;;;10.82;6.10;;;5.50;99.90;;;;;;4979825;28;20030;-92
2024/02/13 07:18:44;;;;;;;11.18;6.10;;;5.50;99.90;;;;;;4979644;28;20397;-94
2024/02/13 07:21:10;;;;;;;9.80;5.80;;;5.50;99.90;;;;;;4980033;28;20113;-92
2024/02/13 07:23:36;;;;;;;8.15;5.45;;;5.50;99.90;;;;;;4979956;28;20457;-92
2024/02/13 07:26:02;;;;;;;10.68;5.55;;;5.50;99.90;;;;;;4979637;28;20038;-92
2024/02/13 07:28:28;;;;;;;7.80;5.57;;;5.50;99.90;;;;;;4980315;28;20118;-93
2024/02/13 07:30:56;;;;;;;9.95;4.97;;;5.50;99.90;;;;;;4979741;28;20113;-94
2024/02/13 07:33:26;;;;;;;12.75;5.72;;;5.60;99.90;;;;;;4963057;28;20031;-92
2024/02/13 07:35:52;;;;;;;10.02;5.18;;;5.60;99.90;;;;;;4963090;28;20491;-93
2024/02/13 07:38:17;;;;;;;7.50;5.30;;;5.60;99.90;;;;;;4979918;28;20022;-90
2024/02/13 07:40:44;;;;;;;12.00;5.70;;;5.60;99.90;;;;;;4980308;28;20019;-91
2024/02/13 07:43:12;;;;;;;7.68;4.85;;;5.60;99.90;;;;;;4980112;28;20028;-94
2024/02/13 07:45:38;;;;;;;6.90;4.63;;;5.60;99.90;;;;;;4979720;28;20081;-93
2024/02/13 07:48:04;;;;;;;7.53;5.50;;;5.60;99.90;;;;;;4979803;28;20022;-93
2024/02/13 07:50:30;;;;;;;7.97;4.80;;;5.60;99.90;;;;;;4963705;28;20038;-92
2024/02/13 07:53:01;;;;;;;8.13;4.72;;;5.60;99.90;;;;;;4979740;28;20065;-92
2024/02/13 07:55:30;;;;;;;10.75;5.45;;;5.60;99.90;;;;;;4979270;28;20046;-93
2024/02/13 07:58:06;;;;;;;7.47;4.65;;;5.60;99.90;;;;;;5021046;27;2479899;-91
2024/02/13 08:00:39;;;;;;;8.65;5.10;;;5.70;99.90;;;;;;5111379;28;20038;-92
2024/02/13 08:03:06;;;;;;;7.43;4.55;;;5.70;99.90;;;;;;5096959;28;20031;-91
2024/02/13 08:05:34;;;;;;;9.10;4.97;;;5.80;99.90;;;;;;5082037;28;20020;-92
2024/02/13 08:08:10;;;;;;;12.63;5.38;;;5.70;99.90;;;;;;5075275;28;20430;-92
2024/02/13 08:10:48;;;;;;;;;;;;;;;;;;;;;
2024/02/13 08:13:22;;;;;;;6.60;4.28;;;5.80;99.90;;;;;;5077293;28;20116;-93
2024/02/13 08:15:47;;;;;;;11.20;4.82;;;5.80;99.90;;;;;;5076031;28;20099;-92
2024/02/13 08:18:23;;;;;;;10.77;4.70;;;5.80;99.90;;;;;;5093851;28;20035;-92
2024/02/13 08:20:48;;;;;;;7.88;4.97;;;5.80;99.90;;;;;;5094439;28;20025;-93
2024/02/13 08:23:14;;;;;;;7.10;4.50;;;5.90;99.90;;;;;;5082488;28;20093;-93
2024/02/13 08:25:44;;;;;;;8.25;4.60;;;5.90;99.90;;;;;;5061183;28;20043;-92
2024/02/13 08:28:13;;;;;;;8.27;4.97;;;5.90;99.90;;;;;;5073980;28;20024;-93
2024/02/13 08:30:41;;;;;;;9.73;4.60;;;5.90;99.90;;;;;;5061590;28;20021;-94
2024/02/13 08:33:10;;;;;;;6.38;4.15;;;6.00;99.90;;;;;;5053770;28;20031;-93
2024/02/13 08:35:36;;;;;;;11.85;5.20;;;6.00;99.90;;;;;;5054603;28;20085;-93
2024/02/13 08:38:04;;;;;;;8.52;4.57;;;6.00;99.90;;;;;;5073466;28;20060;-93
2024/02/13 08:40:30;;;;;;;6.78;4.00;;;6.00;99.90;;;;;;5090744;28;20468;-94
2024/02/13 08:42:59;;;;;;;8.23;4.00;;;6.00;99.90;;;;;;5070557;28;20036;-92
2024/02/13 08:45:30;;;;;;;7.88;4.38;;;6.10;99.90;;;;;;5071525;28;20597;-93
2024/02/13 08:47:59;;;;;;;8.70;4.35;;;6.10;99.90;;;;;;5057252;28;20033;-92
2024/02/13 08:50:27;;;;;;;9.82;4.00;;;6.10;99.90;;;;;;5056328;28;20471;-92
2024/02/13 08:52:57;;;;;;;11.07;4.13;;;6.20;99.90;;;;;;5073247;28;20041;-93
2024/02/13 08:55:23;;;;;;;8.85;4.32;;;6.20;99.90;;;;;;5077999;28;20032;-92
2024/02/13 08:57:51;;;;;;;9.88;4.50;;;6.20;99.90;;;;;;5052998;28;20055;-92
2024/02/13 09:00:18;;;;;;;8.52;3.97;;;6.30;99.90;;;;;;5054646;28;20536;-92
2024/02/13 09:02:47;;;;;;;6.10;3.28;;;6.30;99.90;;;;;;5055237;28;20024;-93
2024/02/13 09:05:13;;;;;;;9.38;3.85;;;6.40;99.90;;;;;;5069392;28;20482;-92
2024/02/13 09:07:43;;;;;;;7.88;3.88;;;6.40;99.90;;;;;;5063782;28;20248;-93
2024/02/13 09:10:12;;;;;;;8.63;3.25;;;6.40;99.90;;;;;;5044488;28;20453;-93
2024/02/13 09:12:41;;;;;;;7.82;3.80;;;6.50;99.90;;;;;;5053867;28;20024;-92
2024/02/13 09:15:11;;;;;;;12.73;4.32;;;6.50;99.90;;;;;;5049024;28;20112;-92
2024/02/13 09:17:43;;;;;;;11.48;4.63;;;6.60;99.90;;;;;;5064231;28;20112;-93
2024/02/13 09:20:21;;;;;;;7.30;4.20;;;6.60;99.90;;;;;;5040810;28;20063;-89
2024/02/13 09:22:47;;;;;;;8.18;3.70;;;6.60;99.90;;;;;;5056971;28;20059;-92
2024/02/13 09:25:14;;;;;;;5.65;3.00;;;6.70;99.90;;;;;;5049395;28;20026;-93
2024/02/13 09:27:46;;;;;;;8.35;3.70;;;6.70;99.90;;;;;;5051589;28;20036;-94
2024/02/13 09:30:16;;;;;;;9.00;4.00;;;6.70;99.90;;;;;;5055264;28;20028;-93
2024/02/13 09:32:46;;;;;;;7.68;3.63;;;6.80;99.90;;;;;;5057568;28;20029;-94
2024/02/13 09:35:16;;;;;;;9.85;4.10;;;6.80;99.90;;;;;;5056996;28;20028;-93
2024/02/13 09:37:59;;;;;;;8.45;4.10;;;6.90;99.90;;;;;;5070240;28;20021;-94
2024/02/13 09:40:28;;;;;;;10.05;3.95;;;6.90;99.90;;;;;;5078841;28;20025;-93
2024/02/13 09:43:01;;;;;;;7.97;3.92;;;7.00;99.90;;;;;;5077365;28;20040;-94
2024/02/13 09:45:29;;;;;;;8.60;3.55;;;7.10;99.90;;;;;;5062135;28;20029;-92
2024/02/13 09:48:03;;;;;;;9.02;3.75;;;7.20;99.90;;;;;;5057357;28;20033;-93
2024/02/13 09:50:47;;;;;;;;;;;;;;;;;;;;;
2024/02/13 09:53:29;;;;;;;7.95;3.47;;;7.30;99.90;;;;;;5048234;28;20025;-89
2024/02/13 09:56:01;;;;;;;10.70;3.60;;;7.30;99.90;;;;;;5039434;28;20029;-93
2024/02/13 09:58:29;;;;;;;9.25;3.85;;;7.40;99.90;;;;;;5055425;28;20044;-91
2024/02/13 10:00:58;;;;;;;8.15;3.88;;;7.40;99.90;;;;;;5051691;28;20052;-91
2024/02/13 10:03:26;;;;;;;11.23;3.83;;;7.50;99.90;;;;;;5035718;28;20025;-88
2024/02/13 10:05:55;;;;;;;9.98;3.75;;;7.50;99.90;;;;;;5052202;28;20040;-93
2024/02/13 10:08:30;;;;;;;8.68;3.72;;;7.50;99.90;;;;;;5056454;28;20029;-93
2024/02/13 10:11:04;;;;;;;9.20;3.40;;;7.50;99.90;;;;;;5055233;28;20402;-92
2024/02/13 10:13:35;;;;;;;12.73;5.05;;;7.60;99.90;;;;;;5055062;28;20025;-92
2024/02/13 10:16:03;;;;;;;10.00;4.10;;;7.70;99.90;;;;;;5055581;28;20028;-93
2024/02/13 10:18:29;;;;;;;9.02;3.65;;;7.70;99.90;;;;;;5051250;28;20028;-92
2024/02/13 10:21:00;;;;;;;11.07;3.53;;;7.80;99.90;;;;;;5034873;28;20029;-92
2024/02/13 10:23:29;;;;;;;8.45;3.25;;;7.90;99.90;;;;;;5038182;28;20033;-93
2024/02/13 10:26:05;;;;;;;6.65;3.03;;;8.00;99.90;;;;;;5053007;28;20029;-91
2024/02/13 10:28:31;;;;;;;8.77;3.63;;;8.00;99.90;;;;;;5047834;28;20029;-92
2024/02/13 10:31:00;;;;;;;6.05;2.88;;;8.00;99.90;;;;;;5056416;28;20108;-93
2024/02/13 10:33:28;;;;;;;8.07;3.70;;;8.00;99.90;;;;;;5045572;28;20057;-91
2024/02/13 10:35:57;;;;;;;4.32;2.63;;;8.10;99.90;;;;;;5033089;28;20461;-91
2024/02/13 10:38:27;;;;;;;8.85;3.05;;;8.10;99.90;;;;;;5034779;28;20018;-93
2024/02/13 10:40:57;;;;;;;7.97;3.40;;;8.20;99.90;;;;;;5054396;28;20404;-92
2024/02/13 10:43:25;;;;;;;7.78;3.03;;;8.30;99.90;;;;;;5049762;28;20389;-93
2024/02/13 10:45:58;;;;;;;6.97;3.22;;;8.30;99.90;;;;;;5050456;28;20017;-94
2024/02/13 10:48:25;;;;;;;8.65;3.13;;;8.30;99.90;;;;;;5055694;28;20021;-92
2024/02/13 10:50:57;;;;;;;8.35;3.30;;;8.40;99.90;;;;;;5045495;28;20029;-93
2024/02/13 10:53:25;;;;;;;7.15;3.67;;;8.50;99.90;;;;;;5036351;28;20480;-92
2024/02/13 10:55:54;;;;;;;7.97;3.22;;;8.50;99.90;;;;;;5034748;28;20120;-93
2024/02/13 10:58:24;;;;;;;6.32;3.25;;;8.50;99.90;;;;;;5049197;28;20037;-90
2024/02/13 11:00:56;;;;;;;8.02;3.08;;;8.50;99.90;;;;;;5055825;28;20036;-91
2024/02/13 11:03:29;;;;;;;7.65;3.10;;;8.50;99.90;;;;;;5040789;28;20483;-94
2024/02/13 11:05:55;;;;;;;9.95;3.05;;;8.60;99.90;;;;;;5070694;28;20077;-92
2024/02/13 11:08:21;;;;;;;6.78;3.25;;;8.70;99.90;;;;;;5066984;28;20009;-86
2024/02/13 11:10:48;;;;;;;5.68;2.72;;;8.80;99.90;;;;;;5094398;28;20009;-94
2024/02/13 11:13:15;;;;;;;7.30;3.42;;;8.80;99.90;;;;;;5079526;28;20028;-93
2024/02/13 11:15:41;;;;;;;7.28;2.90;;;8.90;99.90;;;;;;5068068;28;20025;-93
2024/02/13 11:18:15;;;;;;;5.13;2.58;;;8.90;99.90;;;;;;5054952;28;20036;-92
2024/02/13 11:20:52;;;;;;;9.15;2.83;;;9.00;99.90;;;;;;5049970;28;20022;-93
2024/02/13 11:23:18;;;;;;;6.82;2.60;;;9.00;99.90;;;;;;5035352;28;20026;-93
2024/02/13 11:26:02;;;;;;;6.70;2.25;;;9.10;99.90;;;;;;5036266;28;20025;-93
2024/02/13 11:28:41;;;;;;;6.18;2.60;;;9.20;99.90;;;;;;5055404;28;20432;-92
2024/02/13 11:31:16;;;;;;;4.80;2.45;;;9.20;99.90;;;;;;5065869;28;20021;-93
2024/02/13 11:34:07;;;;;;;5.68;2.83;;;9.30;99.90;;;;;;5043036;28;20037;-92
2024/02/13 11:36:48;;;;;;;8.82;2.92;;;9.40;99.90;;;;;;5027193;28;20543;-92
2024/02/13 11:39:19;;;;;;;5.20;2.30;;;9.50;99.90;;;;;;5054892;28;20358;-93
2024/02/13 11:41:45;;;;;;;5.70;2.30;;;9.50;99.90;;;;;;5055118;28;20053;-92
2024/02/13 11:44:12;;;;;;;8.85;3.00;;;9.60;99.90;;;;;;5053897;28;20476;-92
2024/02/13 11:46:56;;;;;;;8.27;2.55;;;9.70;99.90;;;;;;5053912;28;20021;-92
2024/02/13 11:49:35;;;;;;;;;;;;;;;;;;;;;
2024/02/13 11:52:01;;;;;;;7.15;2.78;;;9.80;99.90;;;;;;5035371;28;20392;-94
2024/02/13 11:54:29;;;;;;;6.28;2.58;;;9.90;99.90;;;;;;5034424;28;20026;-93
2024/02/13 11:56:55;;;;;;;6.53;2.47;;;9.90;99.90;;;;;;5042152;28;20061;-94
2024/02/13 11:59:21;;;;;;;6.10;2.60;;;9.90;99.90;;;;;;5037519;28;20112;-94
2024/02/13 12:01:48;;;;;;;8.23;3.00;;;9.90;99.90;;;;;;5053300;28;20032;-94
2024/02/13 12:04:17;;;;;;;7.38;2.63;;;10.00;99.90;;;;;;5037304;28;20056;-93
2024/02/13 12:06:47;;;;;;;6.07;2.50;;;10.00;99.90;;;;;;5053490;28;20036;-93
2024/02/13 12:09:17;;;;;;;6.75;2.75;;;10.10;99.90;;;;;;5043538;28;20025;-94
2024/02/13 12:11:45;;;;;;;3.78;2.28;;;10.10;99.90;;;;;;5034239;28;20029;-94
2024/02/13 12:14:13;;;;;;;5.25;2.70;;;10.20;99.90;;;;;;5042259;28;20107;-94
2024/02/13 12:16:39;;;;;;;8.65;2.80;;;10.20;99.90;;;;;;5053535;28;20021;-93
2024/02/13 12:19:10;;;;;;;5.05;2.90;;;10.20;99.90;;;;;;5053848;28;20033;-93
2024/02/13 12:21:37;;;;;;;6.93;2.55;;;10.20;99.90;;;;;;5021549;28;20045;-94
2024/02/13 12:24:04;;;;;;;4.60;2.33;;;10.30;99.90;;;;;;5047152;28;20061;-93
2024/02/13 12:26:35;;;;;;;5.90;2.40;;;10.30;99.90;;;;;;5053955;28;20066;-88
2024/02/13 12:29:14;;;;;;;6.68;2.70;;;10.40;99.90;;;;;;5053932;28;20025;-94
2024/02/13 12:31:41;;;;;;;5.68;3.00;;;10.40;99.90;;;;;;5053606;28;20059;-93
2024/02/13 12:34:07;;;;;;;6.40;2.40;;;10.40;99.90;;;;;;5061049;28;20032;-93
2024/02/13 12:36:36;;;;;;;5.22;2.45;;;10.50;99.90;;;;;;5070158;28;20035;-92
2024/02/13 12:39:20;;;;;;;3.85;1.90;;;10.50;99.90;;;;;;5071484;28;20032;-93
2024/02/13 12:41:49;;;;;;;5.18;2.28;;;10.60;99.90;;;;;;5060696;28;20010;-93
2024/02/13 12:44:15;;;;;;;6.82;2.15;;;10.70;99.90;;;;;;5064155;28;20028;-94
2024/02/13 12:46:42;;;;;;;7.88;2.25;;;10.70;99.90;;;;;;5040839;28;20032;-93
2024/02/13 12:49:10;;;;;;;4.47;2.13;;;10.80;99.90;;;;;;5041080;28;20029;-94
2024/02/13 12:51:39;;;;;;;3.28;1.50;;;10.80;99.90;;;;;;5057906;28;20033;-94
2024/02/13 12:54:06;;;;;;;4.57;2.30;;;10.80;99.90;;;;;;5059831;28;20021;-93
2024/02/13 12:56:33;;;;;;;3.15;1.55;;;10.80;99.90;;;;;;5045648;28;20032;-90
2024/02/13 12:59:01;;;;;;;3.00;1.70;;;10.80;99.90;;;;;;5042989;28;20054;-94